Time;durP1;ratioP1;P1;durP2;ratioP2;P2;SDS_P1;SDS_P2;PMS_P1;PMS_P2;Temp;Humidity;BMP_temperature;BMP_pressure;BME280_temperature;BME280_humidity;BME280_pressure;Samples;Min_cycle;Max_cycle;Signal;HPM_P1;HPM_P2
2023/01/05 00:00:19;;;;;;;9.82;6.18;;;;;;;-0.08;100.00;98115.13;5137014;28;20107;-68
2023/01/05 00:02:45;;;;;;;8.63;5.90;;;;;;;-0.09;100.00;98104.69;5137163;28;20114;-66
2023/01/05 00:05:11;;;;;;;10.90;5.55;;;;;;;0.05;100.00;98083.72;5137277;28;20138;-64
2023/01/05 00:07:37;;;;;;;9.38;5.53;;;;;;;0.09;100.00;98081.94;5137037;28;20047;-66
2023/01/05 00:22:29;;;;;;;9.38;4.88;;;;;;;-0.20;100.00;98081.84;5137288;28;20048;-66
2023/01/05 00:23:57;;;;;;;10.35;6.28;;;;;;;0.29;100.00;98031.91;5079413;28;20310;-66
2023/01/05 00:26:23;;;;;;;7.80;5.35;;;;;;;0.01;100.00;98042.34;5136633;28;20115;-68
2023/01/05 00:28:50;;;;;;;12.05;5.25;;;;;;;0.27;100.00;98020.69;5137116;28;20332;-64
2023/01/05 00:31:16;;;;;;;10.27;5.45;;;;;;;0.02;100.00;98029.66;5136634;28;20431;-68
2023/01/05 00:33:43;;;;;;;9.30;5.75;;;;;;;0.15;100.00;98015.19;5137370;28;20134;-64
2023/01/05 00:36:09;;;;;;;11.18;5.72;;;;;;;0.21;100.00;98003.91;5136560;28;20051;-69
2023/01/05 00:38:35;;;;;;;9.43;5.03;;;;;;;0.06;100.00;97993.66;5136828;28;20055;-68
2023/01/05 00:41:02;;;;;;;6.78;5.10;;;;;;;-0.09;100.00;97984.22;5136749;28;20057;-64
2023/01/05 00:43:28;;;;;;;10.45;6.47;;;;;;;0.19;100.00;97954.91;5136462;28;20430;-69
2023/01/05 00:45:55;;;;;;;10.18;5.97;;;;;;;0.03;100.00;97958.50;5136593;27;20105;-63
2023/01/05 00:48:21;;;;;;;7.82;5.93;;;;;;;0.25;100.00;97944.75;5136556;28;20163;-65
2023/01/05 00:50:49;;;;;;;9.05;5.22;;;;;;;0.20;100.00;97934.13;5136560;27;20050;-66
2023/01/05 00:53:15;;;;;;;6.65;4.97;;;;;;;0.06;100.00;97930.91;5136350;28;20138;-64
2023/01/05 00:55:41;;;;;;;7.68;4.68;;;;;;;0.08;100.00;97913.28;5136630;28;20050;-67
2023/01/05 00:58:08;;;;;;;10.48;5.90;;;;;;;0.28;100.00;97909.06;5136357;27;20099;-66
2023/01/05 01:00:34;;;;;;;9.85;6.22;;;;;;;0.23;100.00;97895.75;5139525;28;20057;-68
2023/01/05 01:03:01;;;;;;;9.10;5.80;;;;;;;0.25;100.00;97900.81;5139737;28;20331;-64
2023/01/05 01:05:27;;;;;;;11.77;6.78;;;;;;;0.34;100.00;97885.38;5140144;28;20138;-68
2023/01/05 01:07:53;;;;;;;10.23;5.63;;;;;;;0.33;100.00;97889.97;5139585;27;20077;-63
2023/01/05 01:10:19;;;;;;;11.15;6.00;;;;;;;0.07;100.00;97890.16;5139617;28;20079;-68
2023/01/05 01:12:46;;;;;;;6.43;5.00;;;;;;;0.11;100.00;97883.00;5139661;28;20090;-66
2023/01/05 01:15:12;;;;;;;8.98;5.00;;;;;;;0.15;100.00;97866.97;5139718;28;20089;-65
2023/01/05 01:17:38;;;;;;;10.82;5.68;;;;;;;0.04;100.00;97845.00;5139826;28;20316;-67
2023/01/05 01:20:07;;;;;;;7.57;5.05;;;;;;;-0.03;100.00;97834.75;5139586;28;20043;-65
2023/01/05 01:22:33;;;;;;;12.73;5.35;;;;;;;-0.01;100.00;97810.16;5139864;28;20080;-64
2023/01/05 01:25:00;;;;;;;9.18;5.10;;;;;;;0.06;100.00;97788.88;5139366;28;20043;-69
2023/01/05 01:27:26;;;;;;;8.18;5.78;;;;;;;0.14;100.00;97777.25;5139716;28;20062;-69
2023/01/05 01:29:52;;;;;;;10.45;5.82;;;;;;;0.20;100.00;97753.56;5139329;28;20412;-63
2023/01/05 01:32:19;;;;;;;6.68;4.82;;;;;;;0.13;100.00;97747.91;5139712;28;20074;-70
2023/01/05 01:34:45;;;;;;;7.95;5.18;;;;;;;0.13;100.00;97737.13;5139146;28;20047;-67
2023/01/05 01:37:12;;;;;;;8.85;5.57;;;;;;;0.27;100.00;97724.19;5139195;28;20328;-64
2023/01/05 01:39:38;;;;;;;9.30;5.68;;;;;;;0.25;100.00;97722.94;5139169;27;20138;-64
2023/01/05 01:42:11;;;;;;;9.30;5.68;;;;;;;0.56;100.00;97714.34;5139329;28;20043;-68
2023/01/05 01:44:58;;;;;;;6.65;4.97;;;;;;;0.27;100.00;97704.50;5139489;27;20130;-65
2023/01/05 01:47:32;;;;;;;8.73;6.15;;;;;;;0.28;100.00;97698.78;5139169;28;20043;-65
2023/01/05 01:50:02;;;;;;;9.27;5.85;;;;;;;0.31;100.00;97692.75;5139426;27;20047;-64
2023/01/05 01:52:31;;;;;;;9.90;6.40;;;;;;;0.59;100.00;97676.72;5138921;28;20057;-69
2023/01/05 01:54:58;;;;;;;6.38;4.40;;;;;;;0.28;100.00;97695.31;5139354;27;20477;-67
2023/01/05 01:57:27;;;;;;;9.82;6.40;;;;;;;0.34;100.00;97692.06;5139145;27;20057;-65
2023/01/05 01:59:54;;;;;;;8.30;5.70;;;;;;;0.56;100.00;97682.78;5138823;28;20065;-68
2023/01/05 02:02:22;;;;;;;7.82;5.20;;;;;;;0.47;100.00;97679.41;5139074;28;20043;-64
2023/01/05 02:04:48;;;;;;;7.68;4.70;;;;;;;0.36;100.00;97681.72;5138678;28;20423;-65
2023/01/05 02:07:15;;;;;;;7.32;5.13;;;;;;;0.54;100.00;97670.78;5139090;28;20046;-67
2023/01/05 02:09:43;;;;;;;7.38;5.50;;;;;;;0.48;100.00;97675.59;5137992;27;20083;-66
2023/01/05 02:12:22;;;;;;;8.13;5.22;;;;;;;0.38;100.00;97676.81;5139069;28;20047;-66
2023/01/05 02:15:00;;;;;;;8.50;4.95;;;;;;;0.16;100.00;97659.09;5138590;28;20043;-68
2023/01/05 02:17:38;;;;;;;10.32;5.78;;;;;;;0.52;100.00;97643.34;5139059;28;20475;-66
2023/01/05 02:20:37;;;;;;;7.25;5.38;;;;;;;0.56;100.00;97641.53;5138685;28;20043;-68
2023/01/05 02:23:35;;;;;;;8.30;5.70;;;;;;;0.77;100.00;97642.25;5138658;28;20051;-68
2023/01/05 02:26:43;;;;;;;7.93;5.78;;;;;;;0.53;100.00;97642.22;5138869;27;20460;-65
2023/01/05 02:29:41;;;;;;;7.18;5.22;;;;;;;0.44;100.00;97639.63;5138285;27;20221;-64
2023/01/05 02:32:15;;;;;;;8.00;5.07;;;;;;;0.33;100.00;97620.41;5134932;28;20337;-64
2023/01/05 02:34:47;;;;;;;9.30;5.53;;;;;;;0.48;100.00;97597.41;5138618;28;20058;-62
2023/01/05 02:37:18;;;;;;;8.65;5.72;;;;;;;0.38;100.00;97595.16;5138220;28;20047;-63
2023/01/05 02:39:50;;;;;;;7.43;4.68;;;;;;;0.56;100.00;97591.09;5138791;28;20142;-66
2023/01/05 02:42:20;;;;;;;7.22;5.15;;;;;;;0.56;100.00;97590.31;5138334;28;20051;-66
2023/01/05 02:44:46;;;;;;;7.30;5.13;;;;;;;0.49;100.00;97590.88;5138102;28;21038;-66
2023/01/05 02:47:38;;;;;;;9.32;4.85;;;;;;;0.97;100.00;97583.06;5138363;27;20134;-64
2023/01/05 02:50:10;;;;;;;7.95;4.95;;;;;;;0.97;100.00;97589.28;5138184;28;20062;-66
2023/01/05 02:52:42;;;;;;;7.68;4.55;;;;;;;0.57;100.00;97595.38;5138079;27;20066;-68
2023/01/05 02:55:12;;;;;;;5.72;4.88;;;;;;;1.23;100.00;97578.06;5138067;28;20047;-64
2023/01/05 02:57:46;;;;;;;7.35;5.10;;;;;;;1.02;100.00;97607.94;5138359;27;20430;-63
2023/01/05 03:00:16;;;;;;;6.82;4.85;;;;;;;0.79;100.00;97623.78;5137793;28;20051;-61
2023/01/05 03:02:48;;;;;;;7.78;5.25;;;;;;;0.78;100.00;97627.63;5137740;28;20129;-64
2023/01/05 03:05:20;;;;;;;8.82;5.50;;;;;;;0.98;100.00;97627.84;5137851;27;20067;-66
2023/01/05 03:07:47;;;;;;;12.52;5.43;;;;;;;0.62;100.00;97624.81;5137862;28;20146;-64
2023/01/05 03:15:57;;;;;;;10.63;6.75;;;;;;;1.31;100.00;97604.16;5138509;28;20050;-68
2023/01/05 03:18:26;;;;;;;10.15;5.57;;;;;;;0.89;100.00;97619.84;5137977;28;20416;-66
2023/01/05 03:20:54;;;;;;;9.70;5.57;;;;;;;0.84;100.00;97612.00;5137480;27;20400;-65
2023/01/05 03:37:30;;;;;;;;;;;;;;;0.94;100.00;97593.44;5138133;28;20054;-67
2023/01/05 03:39:56;;;;;;;8.27;5.43;;;;;;;0.90;100.00;97597.13;5137225;28;19927;-68
2023/01/05 03:42:23;;;;;;;10.07;5.88;;;;;;;0.87;100.00;97571.66;5137720;28;20074;-62
2023/01/05 03:44:49;;;;;;;8.82;5.80;;;;;;;1.09;100.00;97572.28;5137216;28;20225;-65
2023/01/05 03:47:16;;;;;;;8.43;5.80;;;;;;;0.83;100.00;97583.44;5137618;27;20147;-63
2023/01/05 03:49:43;;;;;;;7.53;5.10;;;;;;;0.88;100.00;97567.03;5137125;28;20141;-66
2023/01/05 03:52:09;;;;;;;6.50;4.53;;;;;;;0.76;100.00;97562.44;5137326;28;20047;-65
2023/01/05 03:54:35;;;;;;;7.20;5.22;;;;;;;0.78;100.00;97544.00;5137144;28;20085;-66
2023/01/05 03:57:01;;;;;;;9.60;5.05;;;;;;;1.03;100.00;97525.06;5137060;28;20439;-63
2023/01/05 03:59:27;;;;;;;7.50;5.05;;;;;;;1.17;100.00;97520.06;5137164;28;20080;-64
2023/01/05 04:01:54;;;;;;;8.77;6.50;;;;;;;1.38;100.00;97531.47;5136918;28;20452;-63
2023/01/05 04:04:20;;;;;;;10.85;6.85;;;;;;;0.99;100.00;97564.66;5137349;28;20051;-66
2023/01/05 04:06:47;;;;;;;10.02;6.97;;;;;;;1.21;100.00;97547.16;5136832;28;20097;-61
2023/01/05 04:09:13;;;;;;;10.18;6.55;;;;;;;1.10;100.00;97568.44;5137143;28;20311;-66
2023/01/05 04:11:39;;;;;;;10.55;6.32;;;;;;;0.70;100.00;97575.38;5136989;28;20134;-63
2023/01/05 04:14:06;;;;;;;10.95;6.32;;;;;;;0.67;100.00;97549.09;5137412;28;20142;-66
2023/01/05 04:16:32;;;;;;;14.00;7.82;;;;;;;1.39;100.00;97510.63;5136867;28;20047;-62
2023/01/05 04:18:58;;;;;;;12.30;7.18;;;;;;;1.62;100.00;97519.75;5137228;28;20086;-68
2023/01/05 04:21:24;;;;;;;11.27;7.20;;;;;;;1.59;100.00;97566.34;5136824;28;20047;-63
2023/01/05 04:23:51;;;;;;;16.23;8.93;;;;;;;1.67;100.00;97591.66;5136611;28;20059;-67
2023/01/05 04:26:18;;;;;;;13.50;7.25;;;;;;;1.63;100.00;97601.56;5136661;28;20150;-65
2023/01/05 04:28:44;;;;;;;13.63;7.07;;;;;;;1.39;100.00;97624.03;5136508;28;20055;-65
2023/01/05 04:31:10;;;;;;;12.25;7.35;;;;;;;1.39;100.00;97624.03;5136979;27;20058;-65
2023/01/05 04:33:38;;;;;;;13.45;7.68;;;;;;;1.33;100.00;97620.81;5138068;27;20070;-65
2023/01/05 04:36:05;;;;;;;13.30;7.30;;;;;;;1.62;100.00;97616.22;5140455;28;20053;-65
2023/01/05 04:38:31;;;;;;;20.23;8.13;;;;;;;1.48;100.00;97615.81;5140179;28;20339;-68
2023/01/05 04:40:58;;;;;;;17.45;8.15;;;;;;;1.24;100.00;97601.25;5140443;28;20479;-63
2023/01/05 04:43:25;;;;;;;19.98;10.32;;;;;;;1.24;100.00;97585.06;5139906;28;20103;-68
2023/01/05 04:45:51;;;;;;;20.13;9.80;;;;;;;1.67;100.00;97570.06;5140621;28;20130;-62
2023/01/05 04:48:17;;;;;;;15.35;9.68;;;;;;;1.57;100.00;97587.53;5139783;28;20051;-68
2023/01/05 04:50:44;;;;;;;16.10;8.00;;;;;;;1.77;100.00;97585.75;5139917;28;20047;-63
2023/01/05 04:53:10;;;;;;;17.58;8.88;;;;;;;1.87;100.00;97604.19;5140460;28;20047;-63
2023/01/05 04:55:37;;;;;;;13.75;8.68;;;;;;;1.88;100.00;97627.34;5139786;28;20072;-64
2023/01/05 04:58:04;;;;;;;16.42;9.65;;;;;;;1.91;100.00;97630.50;5140212;27;20093;-68
2023/01/05 05:00:30;;;;;;;14.57;8.27;;;;;;;1.83;100.00;97635.72;5139797;28;20476;-63
2023/01/05 05:02:57;;;;;;;23.65;9.40;;;;;;;1.43;100.00;97635.72;5139829;28;20111;-63
2023/01/05 05:05:23;;;;;;;14.20;8.82;;;;;;;1.58;100.00;97605.31;5139833;28;20051;-67
2023/01/05 05:07:49;;;;;;;24.35;9.95;;;;;;;1.56;100.00;97602.16;5139873;28;20133;-63
2023/01/05 05:10:16;;;;;;;17.55;9.25;;;;;;;1.38;100.00;97598.97;5139637;28;20082;-67
2023/01/05 05:12:43;;;;;;;25.17;9.98;;;;;;;1.62;100.00;97583.78;5139906;28;20047;-68
2023/01/05 05:15:11;;;;;;;16.88;9.85;;;;;;;1.91;100.00;97566.44;5139393;28;20043;-65
2023/01/05 05:17:37;;;;;;;19.92;10.32;;;;;;;1.91;100.00;97592.69;5139875;28;20051;-64
2023/01/05 05:20:04;;;;;;;22.70;10.32;;;;;;;1.74;100.00;97602.66;5139212;28;20359;-74
2023/01/05 05:22:31;;;;;;;20.83;10.95;;;;;;;1.60;100.00;97600.34;5139468;28;20055;-69
2023/01/05 05:24:57;;;;;;;22.00;9.82;;;;;;;1.63;100.00;97590.75;5139365;28;20043;-63
2023/01/05 05:27:23;;;;;;;27.08;9.35;;;;;;;1.87;100.00;97587.19;5139051;28;20047;-70
2023/01/05 05:29:49;;;;;;;22.95;10.43;;;;;;;1.62;100.00;97575.69;5139182;27;20110;-64
2023/01/05 05:32:17;;;;;;;25.80;10.02;;;;;;;1.86;100.00;97553.16;5139039;28;20065;-69
2023/01/05 05:34:43;;;;;;;22.25;10.02;;;;;;;1.91;100.00;97571.06;5139090;28;20047;-69
2023/01/05 05:37:09;;;;;;;23.60;10.80;;;;;;;1.94;100.00;97575.78;5138869;28;20051;-63
2023/01/05 05:39:36;;;;;;;24.45;11.23;;;;;;;2.01;100.00;97575.94;5139336;28;20439;-70
2023/01/05 05:42:02;;;;;;;27.50;14.50;;;;;;;2.16;100.00;97587.91;5138801;28;20138;-73
2023/01/05 05:44:29;;;;;;;20.63;10.60;;;;;;;1.73;100.00;97614.56;5138597;27;20494;-69
2023/01/05 05:46:55;;;;;;;16.75;9.40;;;;;;;1.99;100.00;97603.31;5138762;27;20047;-68
2023/01/05 05:49:22;;;;;;;16.50;8.50;;;;;;;2.01;100.00;97594.88;5138824;28;20142;-69
2023/01/05 05:51:48;;;;;;;16.17;8.00;;;;;;;1.99;100.00;97595.19;5138784;28;20050;-75
2023/01/05 05:54:14;;;;;;;16.42;8.90;;;;;;;1.94;100.00;97598.19;5138699;28;20047;-62
2023/01/05 05:56:41;;;;;;;20.85;8.77;;;;;;;2.00;100.00;97593.28;5138963;28;20091;-65
2023/01/05 05:59:07;;;;;;;30.77;9.50;;;;;;;1.86;100.00;97594.47;5138719;28;20365;-69
2023/01/05 06:01:33;;;;;;;15.13;8.75;;;;;;;2.08;100.00;97578.84;5138826;27;20426;-62
2023/01/05 06:04:00;;;;;;;14.25;8.20;;;;;;;1.92;100.00;97595.03;5138504;28;20083;-68
2023/01/05 06:06:26;;;;;;;17.05;8.77;;;;;;;2.13;100.00;97592.06;5138793;28;20055;-64
2023/01/05 06:08:53;;;;;;;22.20;8.90;;;;;;;2.26;100.00;97606.31;5138444;28;20050;-67
2023/01/05 06:11:19;;;;;;;18.65;8.02;;;;;;;1.79;100.00;97609.72;5138962;28;20459;-62
2023/01/05 06:13:47;;;;;;;16.95;9.63;;;;;;;2.11;100.00;97589.75;5138359;28;20419;-70
2023/01/05 06:16:13;;;;;;;16.08;7.88;;;;;;;2.22;100.00;97602.75;5138335;28;20058;-63
2023/01/05 06:18:40;;;;;;;51.88;24.35;;;;;;;2.06;100.00;97613.53;5138940;28;20055;-64
2023/01/05 06:21:06;;;;;;;19.45;9.57;;;;;;;2.17;100.00;97617.31;5138541;28;20059;-65
2023/01/05 06:23:33;;;;;;;18.33;9.93;;;;;;;1.96;100.00;97620.22;5138465;27;20069;-63
2023/01/05 06:25:59;;;;;;;24.92;9.93;;;;;;;2.09;100.00;97616.31;5138120;28;20437;-65
2023/01/05 06:28:26;;;;;;;21.77;11.10;;;;;;;1.94;100.00;97613.63;5138389;28;20081;-66
2023/01/05 06:30:52;;;;;;;19.13;10.20;;;;;;;2.18;100.00;97599.94;5138147;28;20047;-67
2023/01/05 06:33:18;;;;;;;19.30;9.63;;;;;;;1.92;100.00;97613.94;5138415;28;20043;-61
2023/01/05 06:35:44;;;;;;;18.75;9.98;;;;;;;2.23;100.00;97604.31;5137902;28;20086;-63
2023/01/05 06:38:10;;;;;;;25.08;10.27;;;;;;;2.24;100.00;97603.19;5138158;28;20083;-63
2023/01/05 06:40:39;;;;;;;16.10;9.15;;;;;;;2.14;100.00;97615.31;5137894;28;20051;-67
2023/01/05 06:43:06;;;;;;;19.52;10.52;;;;;;;2.21;100.00;97612.78;5138341;28;20112;-63
2023/01/05 06:45:32;;;;;;;23.67;11.13;;;;;;;2.28;100.00;97621.06;5138104;27;20047;-66
2023/01/05 06:47:59;;;;;;;21.77;9.25;;;;;;;2.13;100.00;97621.81;5137625;28;20047;-63
2023/01/05 06:50:26;;;;;;;31.20;9.70;;;;;;;2.08;100.00;97625.56;5137868;28;20059;-66
2023/01/05 06:52:52;;;;;;;33.33;9.60;;;;;;;2.06;100.00;97614.31;5137987;28;20059;-62
2023/01/05 06:55:20;;;;;;;18.20;9.98;;;;;;;2.11;100.00;97611.38;5137953;28;20058;-66
2023/01/05 06:57:47;;;;;;;16.13;8.88;;;;;;;2.07;100.00;97615.13;5137548;27;20541;-67
2023/01/05 07:00:15;;;;;;;21.95;9.05;;;;;;;2.03;100.00;97611.50;5137942;28;20058;-63
2023/01/05 07:02:41;;;;;;;17.98;8.73;;;;;;;2.19;100.00;97606.13;5137394;28;20051;-66
2023/01/05 07:05:08;;;;;;;17.52;8.90;;;;;;;2.21;100.00;97603.88;5137913;28;20400;-62
2023/01/05 07:07:35;;;;;;;21.98;9.20;;;;;;;2.19;100.00;97611.53;5137514;28;20051;-66
2023/01/05 07:10:02;;;;;;;16.42;7.93;;;;;;;2.19;100.00;97620.44;5137892;28;20196;-67
2023/01/05 07:12:28;;;;;;;14.77;6.80;;;;;;;2.22;100.00;97606.22;5137376;28;20086;-67
2023/01/05 07:14:55;;;;;;;15.02;6.80;;;;;;;1.96;100.00;97612.13;5137268;28;20082;-63
2023/01/05 07:17:21;;;;;;;16.05;7.30;;;;;;;2.23;100.00;97599.69;5137676;28;20153;-68
2023/01/05 07:19:47;;;;;;;16.98;6.93;;;;;;;2.27;100.00;97600.56;5137471;28;20073;-63
2023/01/05 07:22:14;;;;;;;20.15;7.15;;;;;;;2.25;100.00;97604.75;5137569;28;20065;-67
2023/01/05 07:24:40;;;;;;;12.15;7.32;;;;;;;2.15;100.00;97616.06;5137468;28;20062;-67
2023/01/05 07:27:07;;;;;;;16.38;7.20;;;;;;;1.99;100.00;97621.44;5137523;28;20078;-62
2023/01/05 07:29:33;;;;;;;11.80;6.47;;;;;;;2.18;100.00;97612.69;5137202;28;20058;-65
2023/01/05 07:32:00;;;;;;;15.98;6.57;;;;;;;2.24;100.00;97608.59;5137441;28;20103;-65
2023/01/05 07:34:26;;;;;;;13.75;7.05;;;;;;;1.86;100.00;97615.31;5137073;28;20332;-64
2023/01/05 07:36:53;;;;;;;16.35;8.45;;;;;;;2.22;100.00;97600.81;5137489;28;20432;-65
2023/01/05 07:39:19;;;;;;;18.05;8.57;;;;;;;2.42;100.00;97603.63;5136871;28;20061;-61
2023/01/05 07:41:45;;;;;;;25.08;8.45;;;;;;;2.45;100.00;97622.66;5137194;28;20138;-70
2023/01/05 07:44:12;;;;;;;16.38;8.52;;;;;;;2.09;100.00;97629.06;5137247;28;20051;-61
2023/01/05 07:46:38;;;;;;;26.38;9.15;;;;;;;2.41;100.00;97626.41;5136977;28;20062;-69
2023/01/05 07:49:05;;;;;;;23.95;9.23;;;;;;;2.33;100.00;97615.41;5137183;27;20061;-69
2023/01/05 07:51:31;;;;;;;24.33;8.45;;;;;;;2.42;100.00;97614.44;5137232;28;20075;-67
2023/01/05 07:53:58;;;;;;;28.13;10.13;;;;;;;2.53;100.00;97615.47;5137223;28;20043;-62
2023/01/05 07:56:24;;;;;;;24.02;9.60;;;;;;;2.52;100.00;97613.91;5136843;28;20051;-68
2023/01/05 07:58:50;;;;;;;22.15;10.88;;;;;;;2.65;100.00;97620.81;5137493;28;20146;-59
2023/01/05 08:01:17;;;;;;;16.67;8.65;;;;;;;2.56;100.00;97622.91;5136904;28;20057;-66
2023/01/05 08:03:43;;;;;;;20.02;8.82;;;;;;;2.53;100.00;97629.00;5137315;28;20050;-65
2023/01/05 08:06:12;;;;;;;20.60;9.55;;;;;;;2.73;100.00;97619.03;5136658;28;20138;-65
2023/01/05 08:08:39;;;;;;;21.60;9.55;;;;;;;2.73;100.00;97621.75;5138412;27;20055;-62
2023/01/05 08:11:06;;;;;;;20.25;9.02;;;;;;;2.71;100.00;97629.47;5140593;28;20047;-64
2023/01/05 08:16:16;;;;;;;34.65;8.93;;;;;;;2.67;100.00;97625.88;5140721;28;20104;-66
2023/01/05 08:18:43;;;;;;;22.00;8.52;;;;;;;2.62;100.00;97626.91;5140453;28;20149;-65
2023/01/05 08:21:10;;;;;;;18.50;8.38;;;;;;;2.53;100.00;97619.00;5140329;28;20132;-59
2023/01/05 08:23:37;;;;;;;16.10;8.65;;;;;;;2.64;100.00;97611.13;5139852;28;20055;-64
2023/01/05 08:26:06;;;;;;;21.02;9.10;;;;;;;2.44;100.00;97612.97;5140667;28;20051;-64
2023/01/05 08:28:34;;;;;;;18.92;10.00;;;;;;;2.48;100.00;97594.13;5139930;28;20082;-59
2023/01/05 08:31:01;;;;;;;18.70;9.23;;;;;;;2.55;100.00;97584.25;5140599;28;20094;-63
2023/01/05 08:33:27;;;;;;;19.30;8.27;;;;;;;2.45;100.00;97573.97;5139823;28;20062;-60
2023/01/05 08:35:54;;;;;;;19.08;9.90;;;;;;;2.10;100.00;97547.63;5139967;28;20436;-64
2023/01/05 08:38:21;;;;;;;25.33;10.80;;;;;;;2.10;100.00;97522.50;5139911;28;20053;-64
2023/01/05 08:40:47;;;;;;;21.17;8.55;;;;;;;1.88;100.00;97504.97;5140023;28;20047;-69
2023/01/05 08:43:14;;;;;;;25.63;10.32;;;;;;;1.87;100.00;97487.19;5140072;28;20443;-67
2023/01/05 08:45:41;;;;;;;16.42;8.05;;;;;;;2.00;100.00;97466.25;5139985;28;20145;-64
2023/01/05 08:48:09;;;;;;;24.33;8.85;;;;;;;2.07;100.00;97458.34;5140012;27;20047;-64
2023/01/05 08:50:37;;;;;;;22.67;10.35;;;;;;;2.35;100.00;97447.38;5139576;28;20047;-62
2023/01/05 08:53:03;;;;;;;20.70;9.13;;;;;;;2.11;100.00;97453.78;5139923;28;20058;-64
2023/01/05 08:55:30;;;;;;;20.08;11.10;;;;;;;2.34;100.00;97443.13;5139537;28;20086;-62
2023/01/05 08:57:56;;;;;;;26.10;10.45;;;;;;;2.42;100.00;97461.06;5140085;28;20410;-64
2023/01/05 09:00:23;;;;;;;23.20;10.70;;;;;;;2.44;100.00;97472.31;5139818;28;20050;-59
2023/01/05 09:02:49;;;;;;;21.60;10.45;;;;;;;2.43;100.00;97489.66;5139829;28;20051;-59
2023/01/05 09:05:16;;;;;;;30.77;12.63;;;;;;;2.39;100.00;97494.22;5139624;27;20106;-66
2023/01/05 09:07:43;;;;;;;31.42;11.85;;;;;;;2.43;100.00;97507.81;5139549;28;20047;-65
2023/01/05 09:10:10;;;;;;;24.17;12.00;;;;;;;2.49;100.00;97514.53;5139570;28;20055;-66
2023/01/05 09:12:38;;;;;;;18.73;10.63;;;;;;;2.60;100.00;97512.88;5139561;28;20146;-66
2023/01/05 09:15:06;;;;;;;22.95;12.02;;;;;;;2.47;100.00;97523.00;5139793;27;20137;-65
2023/01/05 09:17:34;;;;;;;23.05;10.25;;;;;;;2.59;100.00;97525.59;5139910;28;20317;-68
2023/01/05 09:20:02;;;;;;;23.02;11.05;;;;;;;2.54;100.00;97530.50;5138484;27;20119;-63
2023/01/05 09:22:29;;;;;;;20.52;10.85;;;;;;;2.61;100.00;97532.59;5139396;28;20093;-68
2023/01/05 09:24:56;;;;;;;21.52;8.13;;;;;;;2.55;100.00;97537.47;5140097;28;20055;-64
2023/01/05 09:27:24;;;;;;;19.17;9.40;;;;;;;2.65;100.00;97546.97;5138941;28;20058;-66
2023/01/05 09:29:51;;;;;;;15.80;7.72;;;;;;;2.28;100.00;97541.88;5139294;28;20054;-67
2023/01/05 09:32:17;;;;;;;14.73;7.05;;;;;;;2.12;100.00;97539.16;5138971;28;20408;-63
2023/01/05 09:34:43;;;;;;;15.32;7.32;;;;;;;1.72;100.00;97531.19;5138972;28;20476;-67
2023/01/05 09:37:09;;;;;;;14.82;7.47;;;;;;;2.04;100.00;97516.56;5139489;27;20055;-64
2023/01/05 09:39:36;;;;;;;14.50;6.85;;;;;;;2.17;100.00;97501.06;5138779;28;20055;-68
2023/01/05 09:42:06;;;;;;;19.20;9.15;;;;;;;2.33;100.00;97491.00;5138941;28;20078;-63
2023/01/05 09:44:36;;;;;;;17.20;8.35;;;;;;;2.38;100.00;97508.09;5138789;28;20137;-67
2023/01/05 09:47:13;;;;;;;13.25;7.53;;;;;;;1.98;100.00;97522.59;5139186;28;20051;-67
2023/01/05 09:49:40;;;;;;;12.43;6.38;;;;;;;2.15;100.00;97492.50;5138484;28;20082;-64
2023/01/05 09:52:11;;;;;;;15.10;7.72;;;;;;;2.19;100.00;97501.47;5139279;28;20067;-63
2023/01/05 09:54:38;;;;;;;16.45;7.80;;;;;;;2.30;100.00;97507.94;5138717;28;20086;-67
2023/01/05 09:57:11;;;;;;;12.20;6.80;;;;;;;2.39;100.00;97506.97;5138846;28;20061;-65
2023/01/05 09:59:41;;;;;;;17.75;7.65;;;;;;;2.09;100.00;97510.91;5138925;28;20061;-67
2023/01/05 10:02:18;;;;;;;12.73;6.72;;;;;;;2.11;100.00;97497.81;5138722;28;20124;-64
2023/01/05 10:04:47;;;;;;;13.20;7.05;;;;;;;2.29;100.00;97481.22;5138672;27;20057;-62
2023/01/05 10:07:21;;;;;;;11.50;7.15;;;;;;;2.45;100.00;97481.22;5138515;28;20116;-67
2023/01/05 10:09:47;;;;;;;11.52;6.63;;;;;;;1.97;100.00;97480.50;5138825;28;20476;-67
2023/01/05 10:15:09;;;;;;;11.75;6.72;;;;;;;1.91;100.00;97460.25;5138332;28;20443;-64
2023/01/05 10:17:38;;;;;;;14.77;7.28;;;;;;;1.91;100.00;97450.22;5138392;27;20050;-63
2023/01/05 10:20:14;;;;;;;21.15;7.45;;;;;;;1.80;100.00;97449.97;5138395;28;20051;-68
2023/01/05 10:22:47;;;;;;;16.05;6.47;;;;;;;1.59;100.00;97427.81;5138497;28;20047;-66
2023/01/05 10:25:20;;;;;;;17.17;7.80;;;;;;;1.84;100.00;97409.53;5138122;28;20051;-65
2023/01/05 10:27:54;;;;;;;12.07;6.97;;;;;;;1.76;100.00;97411.25;5138605;28;20081;-66
2023/01/05 10:30:23;;;;;;;18.02;6.82;;;;;;;1.61;100.00;97393.94;5137976;27;20055;-67
2023/01/05 10:32:58;;;;;;;16.60;7.82;;;;;;;1.54;100.00;97382.19;5137918;28;20055;-67
2023/01/05 10:35:47;;;;;;;17.73;7.65;;;;;;;1.53;100.00;97359.00;5138295;28;20062;-65
2023/01/05 10:38:27;;;;;;;12.25;6.50;;;;;;;1.57;100.00;97344.47;5137738;28;20083;-64
2023/01/05 10:41:06;;;;;;;15.82;6.40;;;;;;;1.93;100.00;97329.03;5138395;28;20432;-63
2023/01/05 10:43:59;;;;;;;14.55;6.45;;;;;;;1.78;100.00;97349.56;5137508;28;20047;-67
2023/01/05 10:46:25;;;;;;;14.77;6.90;;;;;;;1.74;100.00;97356.03;5137766;28;20397;-64
2023/01/05 10:48:52;;;;;;;11.63;6.85;;;;;;;1.57;100.00;97360.66;5137844;27;20047;-64
2023/01/05 10:51:19;;;;;;;21.23;7.53;;;;;;;1.61;100.00;97358.81;5137899;28;20099;-63
2023/01/05 10:53:45;;;;;;;12.38;6.60;;;;;;;1.69;100.00;97359.75;5137959;28;20047;-64
2023/01/05 10:56:14;;;;;;;10.45;5.90;;;;;;;1.70;100.00;97337.03;5137819;28;20082;-69
2023/01/05 10:58:42;;;;;;;9.90;5.85;;;;;;;1.42;100.00;97361.44;5137782;28;20058;-66
2023/01/05 11:01:21;;;;;;;11.40;6.38;;;;;;;1.63;100.00;97336.84;5137507;28;20439;-66
2023/01/05 11:03:50;;;;;;;9.20;5.53;;;;;;;1.69;100.00;97332.75;5137922;27;20423;-67
2023/01/05 11:06:21;;;;;;;11.85;5.55;;;;;;;1.61;100.00;97344.53;5137490;28;20092;-64
2023/01/05 11:08:48;;;;;;;11.35;6.28;;;;;;;1.64;100.00;97366.22;5137573;28;20054;-63
2023/01/05 11:11:21;;;;;;;10.75;4.80;;;;;;;1.65;100.00;97372.41;5137745;28;20107;-64
2023/01/05 11:13:49;;;;;;;11.38;6.18;;;;;;;1.67;100.00;97378.25;5137548;28;20077;-67
2023/01/05 11:16:19;;;;;;;9.02;5.07;;;;;;;1.38;100.00;97382.94;5138122;28;20123;-69
2023/01/05 11:18:50;;;;;;;7.32;4.63;;;;;;;1.52;100.00;97382.50;5137563;28;20088;-65
2023/01/05 11:21:18;;;;;;;9.27;4.85;;;;;;;1.69;100.00;97377.91;5137724;27;20082;-67
2023/01/05 11:23:46;;;;;;;6.82;4.43;;;;;;;1.71;100.00;97391.84;5137425;28;20133;-65
2023/01/05 11:26:28;;;;;;;7.35;4.53;;;;;;;1.78;100.00;97392.78;5137747;28;20157;-67
2023/01/05 11:29:04;;;;;;;8.45;4.45;;;;;;;1.50;100.00;97416.41;5137017;28;20086;-69
2023/01/05 11:31:36;;;;;;;4.90;3.53;;;;;;;1.40;100.00;97429.31;5137048;28;20188;-70
2023/01/05 11:34:08;;;;;;;6.10;3.90;;;;;;;1.27;100.00;97427.81;5137520;28;20048;-66
2023/01/05 11:36:35;;;;;;;5.47;4.00;;;;;;;1.33;100.00;97429.13;5137137;28;20051;-69
2023/01/05 11:39:02;;;;;;;4.18;3.42;;;;;;;1.14;100.00;97420.91;5137550;28;20051;-67
2023/01/05 11:41:29;;;;;;;4.75;3.63;;;;;;;1.14;100.00;97418.19;5137096;28;20047;-66
2023/01/05 11:43:59;;;;;;;4.47;3.10;;;;;;;0.68;100.00;97426.56;5136373;27;20200;-64
2023/01/05 11:46:39;;;;;;;6.65;3.80;;;;;;;0.93;100.00;97408.41;5136596;28;20051;-68
2023/01/05 11:49:07;;;;;;;5.40;4.03;;;;;;;1.04;100.00;97405.19;5136763;28;20055;-67
2023/01/05 11:51:35;;;;;;;5.18;3.72;;;;;;;1.12;100.00;97406.94;5135038;28;20166;-66
2023/01/05 11:54:02;;;;;;;4.07;3.53;;;;;;;1.36;100.00;97417.59;5119915;28;20063;-63
2023/01/05 11:56:28;;;;;;;5.85;3.60;;;;;;;0.97;100.00;97431.97;5137102;28;20047;-69
2023/01/05 11:58:56;;;;;;;9.90;4.18;;;;;;;1.22;100.00;97430.75;5137149;28;20146;-63
2023/01/05 12:01:51;;;;;;;6.07;3.72;;;;;;;1.12;100.00;97437.41;5136878;28;20090;-67
2023/01/05 12:04:34;;;;;;;5.32;3.70;;;;;;;1.03;100.00;97442.19;5134960;28;20082;-67
2023/01/05 12:07:18;;;;;;;5.35;3.72;;;;;;;1.15;100.00;97434.03;5136717;28;20378;-66
2023/01/05 12:09:53;;;;;;;5.18;3.95;;;;;;;0.86;100.00;97447.88;5136878;28;20313;-63